Time;durP1;ratioP1;P1;durP2;ratioP2;P2;SDS_P1;SDS_P2;PMS_P1;PMS_P2;Temp;Humidity;BMP_temperature;BMP_pressure;BME280_temperature;BME280_humidity;BME280_pressure;Samples;Min_cycle;Max_cycle;Signal;HPM_P1;HPM_P2
2022/06/16 00:01:56;;;;;;;7.25;3.53;;;26.90;99.90;;;;;;5092394;28;20214;-71
2022/06/16 00:04:23;;;;;;;4.50;2.95;;;26.70;99.90;;;;;;5091426;28;20209;-75
2022/06/16 00:06:51;;;;;;;5.38;3.17;;;26.70;99.90;;;;;;5091841;28;20232;-76
2022/06/16 00:09:18;;;;;;;4.32;3.42;;;26.70;99.90;;;;;;5091214;28;20205;-75
2022/06/16 00:11:45;;;;;;;4.47;3.13;;;26.70;99.90;;;;;;5091793;28;20685;-71
2022/06/16 00:14:12;;;;;;;4.50;3.58;;;26.60;99.90;;;;;;5090880;28;20621;-72
2022/06/16 00:16:40;;;;;;;9.48;4.82;;;26.60;99.90;;;;;;5091215;28;20292;-72
2022/06/16 00:19:07;;;;;;;7.05;3.80;;;26.50;99.90;;;;;;5091144;28;20205;-72
2022/06/16 00:21:34;;;;;;;4.78;3.65;;;26.50;99.90;;;;;;5091734;28;20696;-75
2022/06/16 00:24:01;;;;;;;6.00;3.78;;;26.30;99.90;;;;;;5091502;28;20213;-71
2022/06/16 00:26:29;;;;;;;6.72;3.92;;;26.30;99.90;;;;;;5091859;28;20213;-72
2022/06/16 00:28:56;;;;;;;5.95;4.03;;;26.30;99.90;;;;;;5084080;28;20209;-72
2022/06/16 00:31:24;;;;;;;4.50;3.13;;;26.30;99.90;;;;;;5084603;28;20221;-72
2022/06/16 00:33:53;;;;;;;5.55;3.03;;;26.20;99.90;;;;;;5091239;28;20250;-73
2022/06/16 00:36:20;;;;;;;6.07;3.70;;;26.20;99.90;;;;;;5090706;28;20244;-72
2022/06/16 00:38:47;;;;;;;4.82;3.30;;;26.20;99.90;;;;;;5091375;28;20205;-72
2022/06/16 00:41:15;;;;;;;5.20;3.50;;;26.20;99.90;;;;;;5090781;28;20217;-73
2022/06/16 00:43:42;;;;;;;22.70;4.07;;;26.10;99.90;;;;;;5091028;28;20624;-69
2022/06/16 00:46:14;;;;;;;8.40;4.85;;;26.10;99.90;;;;;;5090854;28;20212;-69
2022/06/16 00:48:45;;;;;;;7.45;4.20;;;26.00;99.90;;;;;;5090821;28;20213;-69
2022/06/16 00:51:18;;;;;;;5.55;3.30;;;25.90;99.90;;;;;;5090861;28;20243;-70
2022/06/16 00:53:46;;;;;;;5.70;3.97;;;25.80;99.90;;;;;;5091090;28;20209;-71
2022/06/16 00:56:17;;;;;;;6.15;3.60;;;25.80;99.90;;;;;;5090667;28;20659;-71
2022/06/16 00:58:48;;;;;;;6.95;3.50;;;25.70;99.90;;;;;;5090771;28;20673;-70
2022/06/16 01:01:18;;;;;;;7.57;4.60;;;25.70;99.90;;;;;;5090611;28;20278;-70
2022/06/16 01:06:32;;;;;;;5.20;3.53;;;25.50;99.90;;;;;;5090866;28;20758;-69
2022/06/16 01:09:06;;;;;;;4.85;3.22;;;25.50;99.90;;;;;;5091072;28;20205;-71
2022/06/16 01:14:54;;;;;;;4.55;3.05;;;25.50;99.90;;;;;;5090686;28;20223;-70
2022/06/16 01:17:29;;;;;;;4.13;3.72;;;25.50;99.90;;;;;;5090407;28;20327;-69
2022/06/16 01:20:07;;;;;;;5.10;3.50;;;25.60;99.90;;;;;;5073982;28;20206;-70
2022/06/16 01:22:54;;;;;;;5.70;3.95;;;25.40;99.90;;;;;;5072472;28;20205;-70
2022/06/16 01:25:30;;;;;;;4.38;3.55;;;25.30;99.90;;;;;;5065073;28;20626;-69
2022/06/16 01:28:21;;;;;;;8.30;3.78;;;25.20;99.90;;;;;;5081934;28;20202;-70
2022/06/16 01:30:56;;;;;;;6.03;3.53;;;25.10;99.90;;;;;;5087842;28;20258;-71
2022/06/16 01:33:31;;;;;;;7.57;4.18;;;25.00;99.90;;;;;;5090113;28;20209;-71
2022/06/16 01:36:06;;;;;;;7.03;4.03;;;25.10;99.90;;;;;;5087109;28;20240;-71
2022/06/16 01:38:40;;;;;;;7.47;4.63;;;25.00;99.90;;;;;;5081191;28;20221;-73
2022/06/16 01:41:13;;;;;;;4.72;3.97;;;25.00;99.90;;;;;;5089514;28;20258;-71
2022/06/16 01:43:45;;;;;;;5.13;3.65;;;24.90;99.90;;;;;;5090457;28;20738;-69
2022/06/16 01:46:18;;;;;;;5.05;3.83;;;25.00;99.90;;;;;;5090014;28;20201;-72
2022/06/16 01:48:49;;;;;;;6.18;3.33;;;24.90;99.90;;;;;;5090493;28;20205;-73
2022/06/16 01:51:34;;;;;;;9.80;3.53;;;24.90;99.90;;;;;;5089698;28;20262;-72
2022/06/16 01:54:05;;;;;;;4.43;3.75;;;24.90;99.90;;;;;;5078613;28;20205;-69
2022/06/16 01:56:38;;;;;;;7.43;3.60;;;24.90;99.90;;;;;;5088293;28;20225;-71
2022/06/16 01:59:09;;;;;;;4.53;3.63;;;24.90;99.90;;;;;;5090084;28;20208;-72
2022/06/16 02:01:41;;;;;;;5.15;4.10;;;24.90;99.90;;;;;;5090143;28;20209;-73
2022/06/16 02:04:15;;;;;;;6.18;4.53;;;24.80;99.90;;;;;;5089771;28;20772;-73
2022/06/16 02:06:47;;;;;;;7.20;4.22;;;24.80;99.90;;;;;;5090062;28;20638;-73
2022/06/16 02:09:18;;;;;;;4.28;3.78;;;24.70;99.90;;;;;;5089831;28;20213;-72
2022/06/16 02:11:46;;;;;;;3.83;3.50;;;24.60;99.90;;;;;;5090162;28;20259;-69
2022/06/16 02:14:18;;;;;;;4.68;3.90;;;24.60;99.90;;;;;;5089771;28;20212;-70
2022/06/16 02:16:47;;;;;;;8.63;4.32;;;24.70;99.90;;;;;;5090035;28;20230;-71
2022/06/16 02:19:18;;;;;;;6.05;4.07;;;24.70;99.90;;;;;;5089742;28;20206;-70
2022/06/16 02:21:47;;;;;;;4.60;4.20;;;24.70;99.90;;;;;;5089923;28;20669;-70
2022/06/16 02:24:17;;;;;;;3.95;3.55;;;24.60;99.90;;;;;;5089489;28;20677;-70
2022/06/16 02:26:45;;;;;;;4.47;3.88;;;24.50;99.90;;;;;;5089999;28;20214;-71
2022/06/16 02:29:29;;;;;;;5.13;4.07;;;24.40;99.90;;;;;;5062186;28;20597;-72
2022/06/16 02:32:06;;;;;;;5.20;4.70;;;24.30;99.90;;;;;;5090300;28;20446;-72
2022/06/16 02:34:45;;;;;;;6.18;4.75;;;24.40;99.90;;;;;;5090048;28;20263;-72
2022/06/16 02:37:31;;;;;;;8.93;4.47;;;24.40;99.90;;;;;;5089143;28;20236;-71
2022/06/16 02:40:16;;;;;;;7.82;4.38;;;24.50;99.90;;;;;;5093273;28;20292;-71
2022/06/16 02:42:53;;;;;;;9.20;5.38;;;24.50;99.90;;;;;;5093345;28;20683;-72
2022/06/16 02:45:27;;;;;;;8.13;4.78;;;24.50;99.90;;;;;;5093078;28;20661;-70
2022/06/16 02:48:05;;;;;;;9.27;5.97;;;24.40;99.90;;;;;;5093704;28;20201;-72
2022/06/16 02:50:42;;;;;;;8.85;5.07;;;24.50;99.90;;;;;;5093396;28;20735;-70
2022/06/16 02:53:17;;;;;;;5.97;4.45;;;24.50;99.90;;;;;;5067326;28;20205;-71
2022/06/16 02:55:47;;;;;;;4.45;3.97;;;24.40;99.90;;;;;;5093220;28;20208;-68
2022/06/16 02:58:18;;;;;;;5.55;5.05;;;24.40;99.90;;;;;;5093179;28;20209;-70
2022/06/16 03:00:48;;;;;;;7.32;4.15;;;24.30;99.90;;;;;;5092679;28;20266;-69
2022/06/16 03:03:22;;;;;;;9.73;4.40;;;24.00;99.90;;;;;;5078211;28;20669;-70
2022/06/16 03:05:54;;;;;;;7.57;4.32;;;23.80;99.90;;;;;;5082015;28;20592;-70
2022/06/16 03:08:22;;;;;;;6.70;4.35;;;23.70;99.90;;;;;;5071703;28;20689;-71
2022/06/16 03:10:52;;;;;;;6.72;4.63;;;23.60;99.90;;;;;;5079497;28;20247;-69
2022/06/16 03:13:19;;;;;;;4.28;3.65;;;23.70;99.90;;;;;;5077140;28;20222;-71
2022/06/16 03:15:46;;;;;;;8.95;4.00;;;23.70;99.90;;;;;;5080078;28;20213;-72
2022/06/16 03:18:13;;;;;;;5.32;3.97;;;23.70;99.90;;;;;;5080018;28;20324;-71
2022/06/16 03:20:42;;;;;;;8.30;4.35;;;23.70;99.90;;;;;;5079083;28;20237;-70
2022/06/16 03:23:09;;;;;;;7.03;4.50;;;23.70;99.90;;;;;;5082021;28;20258;-71
2022/06/16 03:25:37;;;;;;;8.05;5.07;;;23.80;99.90;;;;;;5080769;28;20210;-72
2022/06/16 03:28:04;;;;;;;5.53;5.00;;;23.80;99.90;;;;;;5084527;28;20635;-71
2022/06/16 03:30:33;;;;;;;5.75;4.40;;;23.80;99.90;;;;;;5085707;28;20198;-72
2022/06/16 03:33:00;;;;;;;5.20;4.00;;;23.80;99.90;;;;;;5090046;28;20201;-69
2022/06/16 03:35:27;;;;;;;6.22;4.22;;;23.80;99.90;;;;;;5088420;28;20255;-72
2022/06/16 03:37:57;;;;;;;6.18;4.85;;;23.80;99.90;;;;;;5091219;28;20294;-68
2022/06/16 03:40:24;;;;;;;7.03;3.72;;;23.80;99.90;;;;;;5090012;28;20215;-72
2022/06/16 03:42:51;;;;;;;6.47;4.40;;;23.80;99.90;;;;;;5090016;28;20205;-71
2022/06/16 03:45:18;;;;;;;4.85;3.95;;;23.70;99.90;;;;;;5090767;28;20209;-72
2022/06/16 03:47:46;;;;;;;4.53;3.95;;;23.70;99.90;;;;;;5090782;28;20734;-71
2022/06/16 03:50:15;;;;;;;5.00;3.63;;;23.70;99.90;;;;;;5078664;28;20206;-73
2022/06/16 03:52:42;;;;;;;8.57;4.57;;;23.70;99.90;;;;;;5075987;28;20198;-69
2022/06/16 03:55:11;;;;;;;6.60;3.88;;;23.60;99.90;;;;;;5091840;28;20204;-73
2022/06/16 03:57:38;;;;;;;6.30;4.43;;;23.60;99.90;;;;;;5075417;28;20735;-71
2022/06/16 04:00:07;;;;;;;8.45;3.90;;;23.60;99.90;;;;;;5072485;28;20261;-72
2022/06/16 04:02:34;;;;;;;6.63;3.90;;;23.50;99.90;;;;;;5073134;28;20553;-71
2022/06/16 04:05:02;;;;;;;7.55;4.32;;;23.50;99.90;;;;;;5072861;28;20206;-70
2022/06/16 04:07:29;;;;;;;5.15;3.90;;;23.50;99.90;;;;;;5073618;28;20213;-71
2022/06/16 04:09:56;;;;;;;5.43;4.88;;;23.60;99.90;;;;;;5073915;28;20206;-71
2022/06/16 04:12:25;;;;;;;4.97;4.55;;;23.60;99.90;;;;;;5069421;28;20206;-69
2022/06/16 04:14:52;;;;;;;10.85;4.82;;;23.50;99.90;;;;;;5073925;28;20259;-70
2022/06/16 04:17:19;;;;;;;7.30;4.78;;;23.50;99.90;;;;;;5072756;28;20279;-72
2022/06/16 04:22:30;;;;;;;5.47;4.32;;;23.50;99.90;;;;;;5074126;28;20213;-69
2022/06/16 04:24:57;;;;;;;5.30;4.55;;;23.50;99.90;;;;;;5072029;28;20202;-69
2022/06/16 04:27:26;;;;;;;5.95;5.22;;;23.50;99.90;;;;;;5074216;28;20260;-71
2022/06/16 04:29:53;;;;;;;5.43;3.60;;;23.50;99.90;;;;;;5071286;28;20678;-71
2022/06/16 04:32:20;;;;;;;7.47;4.97;;;23.50;99.90;;;;;;5071972;28;20748;-70
2022/06/16 04:34:48;;;;;;;7.47;4.60;;;23.50;99.90;;;;;;5072043;28;20623;-70
2022/06/16 04:37:15;;;;;;;4.72;4.00;;;23.50;99.90;;;;;;5073959;28;20294;-71
2022/06/16 04:39:42;;;;;;;7.30;4.50;;;23.40;99.90;;;;;;5073493;28;20210;-69
2022/06/16 04:42:09;;;;;;;8.35;5.28;;;23.50;99.90;;;;;;5075548;28;20245;-69
2022/06/16 04:44:39;;;;;;;6.68;5.13;;;23.50;99.90;;;;;;5074288;28;20252;-71
2022/06/16 04:47:07;;;;;;;5.68;4.95;;;23.50;99.90;;;;;;5076896;28;20202;-71
2022/06/16 04:49:34;;;;;;;4.72;4.20;;;23.50;99.90;;;;;;5074710;28;20289;-70
2022/06/16 04:52:02;;;;;;;6.93;5.32;;;23.50;99.90;;;;;;5077019;28;20245;-70
2022/06/16 04:54:29;;;;;;;8.73;4.82;;;23.60;99.90;;;;;;5077095;28;20252;-69
2022/06/16 04:56:56;;;;;;;7.68;4.63;;;23.60;99.90;;;;;;5077265;28;20652;-71
2022/06/16 04:59:23;;;;;;;7.22;4.60;;;23.60;99.90;;;;;;5079104;28;20567;-71
2022/06/16 05:01:53;;;;;;;6.32;4.88;;;23.60;99.90;;;;;;5076950;28;20721;-70
2022/06/16 05:04:21;;;;;;;7.10;4.32;;;23.70;99.90;;;;;;5080910;28;20209;-71
2022/06/16 05:06:48;;;;;;;8.60;4.38;;;23.70;99.90;;;;;;5076716;28;20238;-67
2022/06/16 05:09:15;;;;;;;5.22;4.63;;;23.80;99.90;;;;;;5083531;28;20274;-70
2022/06/16 05:11:42;;;;;;;5.85;5.03;;;23.80;99.90;;;;;;5072072;28;20624;-69
2022/06/16 05:14:09;;;;;;;7.50;5.40;;;23.70;99.90;;;;;;5068833;28;20209;-69
2022/06/16 05:16:36;;;;;;;8.73;5.20;;;23.80;99.90;;;;;;5080217;28;20199;-70
2022/06/16 05:19:04;;;;;;;6.90;5.03;;;23.90;99.90;;;;;;5067828;28;20202;-70
2022/06/16 05:21:31;;;;;;;9.00;5.03;;;24.00;99.90;;;;;;5069358;28;20593;-71
2022/06/16 05:23:58;;;;;;;7.63;4.30;;;24.20;99.90;;;;;;5065449;28;20206;-74
2022/06/16 05:26:25;;;;;;;6.13;5.18;;;24.30;99.90;;;;;;5069982;28;20202;-73
2022/06/16 05:28:52;;;;;;;10.70;5.63;;;24.30;99.90;;;;;;5071877;28;20669;-71
2022/06/16 05:31:19;;;;;;;7.78;4.70;;;24.30;99.90;;;;;;5079938;28;20208;-71
2022/06/16 05:33:46;;;;;;;6.90;4.63;;;24.40;99.90;;;;;;5090107;28;20209;-73
2022/06/16 05:36:16;;;;;;;7.88;4.60;;;24.60;99.90;;;;;;5090116;28;20201;-72
2022/06/16 05:38:43;;;;;;;7.82;5.13;;;24.70;99.90;;;;;;5078637;28;20588;-72
2022/06/16 05:41:14;;;;;;;6.30;4.85;;;24.90;99.90;;;;;;5090189;28;20209;-73
2022/06/16 05:43:41;;;;;;;5.50;4.13;;;25.00;99.90;;;;;;5074429;28;20731;-72
2022/06/16 05:46:14;;;;;;;11.27;4.45;;;24.70;99.90;;;;;;5061222;28;20209;-72
2022/06/16 05:48:41;;;;;;;5.60;4.57;;;24.60;99.90;;;;;;5082408;28;20198;-72
2022/06/16 05:51:10;;;;;;;5.05;3.92;;;24.70;99.90;;;;;;5083664;28;20210;-73
2022/06/16 05:53:39;;;;;;;7.90;4.53;;;24.80;99.90;;;;;;5067406;28;20272;-70
2022/06/16 05:56:07;;;;;;;6.40;4.43;;;24.80;99.90;;;;;;5065590;28;20504;-71
2022/06/16 05:58:34;;;;;;;8.20;4.15;;;24.90;99.90;;;;;;5070775;28;20275;-71
2022/06/16 06:01:02;;;;;;;8.98;5.00;;;25.00;99.90;;;;;;5070678;28;20723;-72
2022/06/16 06:03:29;;;;;;;5.97;4.45;;;25.00;99.90;;;;;;5072194;28;20201;-74
2022/06/16 06:05:58;;;;;;;7.15;5.72;;;25.00;99.90;;;;;;5075056;28;20206;-73
2022/06/16 06:16:45;;;;;;;5.85;3.97;;;25.20;99.90;;;;;;5075605;28;20294;-73
2022/06/16 06:19:27;;;;;;;6.50;4.72;;;25.20;99.90;;;;;;5078742;28;20234;-73
2022/06/16 06:22:00;;;;;;;17.55;5.28;;;25.30;99.90;;;;;;5066870;28;20230;-73
2022/06/16 06:24:28;;;;;;;5.55;4.93;;;25.30;99.90;;;;;;5080576;28;20292;-72
2022/06/16 06:26:58;;;;;;;12.07;5.28;;;25.30;99.90;;;;;;5075632;28;20210;-72
2022/06/16 06:29:25;;;;;;;10.88;5.75;;;25.40;99.90;;;;;;5061767;28;20263;-70
2022/06/16 06:31:52;;;;;;;9.80;5.80;;;25.50;99.90;;;;;;5069297;28;20716;-74
2022/06/16 06:34:19;;;;;;;9.73;5.72;;;25.60;99.90;;;;;;5074488;28;20630;-70
2022/06/16 06:36:47;;;;;;;12.50;7.22;;;25.70;99.90;;;;;;5076422;28;20278;-69
2022/06/16 06:39:14;;;;;;;8.75;7.53;;;25.80;99.90;;;;;;5075724;28;20629;-69
2022/06/16 06:41:41;;;;;;;10.73;7.28;;;25.80;99.90;;;;;;5075264;28;20222;-71
2022/06/16 06:44:09;;;;;;;11.02;6.57;;;25.80;99.90;;;;;;5074246;28;20210;-70
2022/06/16 06:46:36;;;;;;;9.13;5.88;;;25.80;99.90;;;;;;5076101;28;20662;-71
2022/06/16 06:49:04;;;;;;;10.75;7.53;;;25.90;99.90;;;;;;5080185;28;20278;-70
2022/06/16 06:51:32;;;;;;;12.23;6.72;;;25.90;99.90;;;;;;5069523;28;20202;-71
2022/06/16 06:54:00;;;;;;;17.23;7.25;;;25.90;99.90;;;;;;5078828;28;20206;-71
2022/06/16 06:56:27;;;;;;;8.60;7.57;;;26.00;99.90;;;;;;5077868;28;20289;-71
2022/06/16 06:58:56;;;;;;;15.77;7.30;;;26.10;99.90;;;;;;5077725;28;20303;-69
2022/06/16 07:01:24;;;;;;;11.40;7.95;;;26.20;99.90;;;;;;5070848;28;20206;-69
2022/06/16 07:03:51;;;;;;;11.63;7.82;;;26.50;99.90;;;;;;5071012;28;20206;-70
2022/06/16 07:06:20;;;;;;;11.00;7.50;;;26.70;99.90;;;;;;5066747;28;20238;-71
2022/06/16 07:08:47;;;;;;;16.20;7.75;;;26.50;99.90;;;;;;5074957;28;20259;-72
2022/06/16 07:11:14;;;;;;;9.85;7.30;;;26.50;99.90;;;;;;5078941;28;20202;-72
2022/06/16 07:13:42;;;;;;;10.23;7.20;;;26.70;99.90;;;;;;5074740;28;20252;-76
2022/06/16 07:16:10;;;;;;;14.63;7.75;;;26.70;99.90;;;;;;5078856;28;20214;-76
2022/06/16 07:18:38;;;;;;;13.43;8.93;;;26.80;99.90;;;;;;5084622;28;20252;-73
2022/06/16 07:21:05;;;;;;;12.68;7.05;;;26.70;99.90;;;;;;5079812;28;20289;-73
2022/06/16 07:23:33;;;;;;;19.42;7.88;;;26.90;99.90;;;;;;5086445;28;20258;-74
2022/06/16 07:26:00;;;;;;;12.25;7.15;;;27.00;99.90;;;;;;5077684;28;20206;-72
2022/06/16 07:28:27;;;;;;;14.25;7.28;;;27.20;99.90;;;;;;5078618;28;20217;-74
2022/06/16 07:30:54;;;;;;;8.48;7.63;;;27.20;99.90;;;;;;5059693;28;20206;-73
2022/06/16 07:33:23;;;;;;;14.93;8.00;;;27.50;99.90;;;;;;5073141;28;20214;-70
2022/06/16 07:35:55;;;;;;;12.20;7.53;;;27.70;99.90;;;;;;5074032;28;20611;-71
2022/06/16 07:38:22;;;;;;;30.23;9.35;;;27.70;99.90;;;;;;5073676;28;20591;-75
2022/06/16 07:40:49;;;;;;;11.52;7.70;;;27.70;99.90;;;;;;5076166;28;20214;-76
2022/06/16 07:43:16;;;;;;;13.45;7.65;;;27.80;99.90;;;;;;5074245;28;20252;-76
2022/06/16 07:45:45;;;;;;;18.58;9.80;;;28.00;99.90;;;;;;5078022;28;20230;-75
2022/06/16 07:48:15;;;;;;;17.35;8.68;;;27.80;99.90;;;;;;5075320;28;20241;-70
2022/06/16 07:50:42;;;;;;;10.45;8.23;;;28.10;99.90;;;;;;5079403;28;20284;-74
2022/06/16 07:53:10;;;;;;;17.60;8.02;;;28.70;99.90;;;;;;5076042;28;20267;-72
2022/06/16 07:55:37;;;;;;;11.40;7.47;;;29.10;99.90;;;;;;5081231;28;20247;-73
2022/06/16 07:58:04;;;;;;;9.57;6.82;;;29.50;99.90;;;;;;5076305;28;20654;-70
2022/06/16 08:00:34;;;;;;;11.73;6.90;;;29.60;99.90;;;;;;5080285;28;20205;-75
2022/06/16 08:03:02;;;;;;;22.48;7.10;;;29.40;99.90;;;;;;5076732;28;20260;-71
2022/06/16 08:05:29;;;;;;;9.52;6.75;;;29.80;99.90;;;;;;5082025;28;20247;-73
2022/06/16 08:07:56;;;;;;;14.30;6.45;;;30.60;99.90;;;;;;5080677;28;20241;-73
2022/06/16 08:10:27;;;;;;;13.18;7.90;;;31.90;99.90;;;;;;5081914;28;20205;-72
2022/06/16 08:12:54;;;;;;;14.57;6.85;;;31.20;99.90;;;;;;5083236;28;20587;-73
2022/06/16 08:15:22;;;;;;;10.90;6.75;;;31.60;99.90;;;;;;5081992;28;20252;-71
2022/06/16 08:17:51;;;;;;;11.32;7.20;;;31.10;99.90;;;;;;5086119;28;20282;-70
2022/06/16 08:20:18;;;;;;;11.98;6.53;;;30.50;99.90;;;;;;5075290;28;20268;-71
2022/06/16 08:22:45;;;;;;;14.85;7.63;;;30.40;99.90;;;;;;5071410;28;20255;-74
2022/06/16 08:25:15;;;;;;;11.20;7.65;;;30.20;99.90;;;;;;5070698;28;20210;-71
2022/06/16 08:27:45;;;;;;;19.20;8.45;;;30.60;99.90;;;;;;5071075;28;20698;-71
2022/06/16 08:30:16;;;;;;;14.93;7.22;;;30.60;99.90;;;;;;5085563;28;20312;-71
2022/06/16 08:32:43;;;;;;;13.60;8.35;;;30.60;99.90;;;;;;5091552;28;20576;-71
2022/06/16 08:35:11;;;;;;;9.45;6.93;;;30.70;99.90;;;;;;5091130;28;20258;-70
2022/06/16 08:37:38;;;;;;;11.18;7.28;;;30.80;99.90;;;;;;5090749;28;20209;-72
2022/06/16 08:40:07;;;;;;;12.25;8.25;;;30.90;99.90;;;;;;5091159;28;20201;-72
2022/06/16 08:42:42;;;;;;;9.98;6.80;;;31.00;99.90;;;;;;5091086;28;20236;-72
2022/06/16 08:45:19;;;;;;;10.55;7.53;;;31.20;99.90;;;;;;5090977;28;20215;-73
2022/06/16 08:47:53;;;;;;;17.25;7.90;;;31.30;99.90;;;;;;5091247;28;20201;-74
2022/06/16 08:50:35;;;;;;;13.65;6.28;;;31.30;99.90;;;;;;5090998;28;20209;-72
2022/06/16 08:53:17;;;;;;;10.98;6.85;;;31.20;99.90;;;;;;5091150;28;20296;-69
2022/06/16 08:55:51;;;;;;;12.35;6.40;;;31.50;99.90;;;;;;5090905;28;20246;-71
2022/06/16 08:58:27;;;;;;;14.43;6.78;;;31.80;99.90;;;;;;5069145;28;20263;-73
2022/06/16 09:00:59;;;;;;;12.02;6.40;;;31.90;99.90;;;;;;5081393;28;20262;-71
2022/06/16 09:03:35;;;;;;;9.43;6.05;;;32.10;99.90;;;;;;5091066;28;20208;-71
2022/06/16 09:06:11;;;;;;;7.57;6.88;;;32.40;99.90;;;;;;5090686;28;20265;-70
2022/06/16 09:08:48;;;;;;;8.65;6.15;;;32.60;99.90;;;;;;5091032;28;20266;-72
2022/06/16 09:11:25;;;;;;;11.27;6.90;;;32.60;99.90;;;;;;5090429;28;20208;-72
2022/06/16 09:15:10;;;;;;;9.75;5.82;;;33.30;99.90;;;;;;5090996;28;20257;-71
2022/06/16 09:17:23;;;;;;;8.57;6.38;;;33.70;99.90;;;;;;5069056;28;20676;-72
2022/06/16 09:20:01;;;;;;;9.88;6.22;;;34.00;99.90;;;;;;5090660;28;20231;-69
2022/06/16 09:22:44;;;;;;;9.98;5.93;;;34.20;99.90;;;;;;5091269;28;20212;-72
2022/06/16 09:25:38;;;;;;;14.55;6.35;;;34.50;99.90;;;;;;5089970;28;20253;-73
2022/06/16 09:28:12;;;;;;;7.30;5.63;;;36.70;99.90;;;;;;5079166;28;20205;-72
2022/06/16 09:30:42;;;;;;;8.50;6.22;;;37.40;99.90;;;;;;5088696;28;20234;-73
2022/06/16 09:33:15;;;;;;;12.73;6.13;;;39.30;99.90;;;;;;5090404;28;20197;-70
2022/06/16 09:35:47;;;;;;;10.57;6.15;;;39.70;99.90;;;;;;5082147;28;20197;-70
2022/06/16 09:38:20;;;;;;;8.52;6.20;;;39.80;99.90;;;;;;5071170;28;20789;-73
2022/06/16 09:40:51;;;;;;;10.32;6.25;;;40.40;99.90;;;;;;5090202;28;20258;-71
2022/06/16 09:43:24;;;;;;;10.23;5.47;;;40.60;99.90;;;;;;5090068;28;20208;-72
2022/06/16 09:45:54;;;;;;;8.27;5.63;;;43.00;99.90;;;;;;5090593;28;20333;-72
2022/06/16 09:48:28;;;;;;;9.60;5.10;;;43.50;99.90;;;;;;5091330;28;20630;-71
2022/06/16 09:51:00;;;;;;;8.23;5.10;;;40.40;99.90;;;;;;5094963;28;20269;-71
2022/06/16 09:53:35;;;;;;;8.82;5.53;;;42.00;99.90;;;;;;5094970;28;20263;-72
2022/06/16 09:56:06;;;;;;;5.43;4.45;;;42.40;99.90;;;;;;5094125;28;20205;-69
2022/06/16 09:58:38;;;;;;;6.10;4.43;;;40.60;99.90;;;;;;5094515;28;20223;-72
2022/06/16 10:01:09;;;;;;;6.88;5.40;;;40.50;99.90;;;;;;5093818;28;20325;-72
2022/06/16 10:03:43;;;;;;;7.22;4.70;;;42.10;99.90;;;;;;5094292;28;20240;-70
2022/06/16 10:06:28;;;;;;;10.10;4.65;;;43.40;99.90;;;;;;5093749;28;20611;-68
2022/06/16 10:09:07;;;;;;;9.40;4.53;;;44.50;99.90;;;;;;5094348;28;20205;-69
2022/06/16 10:11:48;;;;;;;13.15;5.85;;;44.30;99.90;;;;;;5094139;28;20286;-71
2022/06/16 10:14:20;;;;;;;8.80;4.45;;;44.40;99.90;;;;;;5093864;28;20628;-72
2022/06/16 10:16:53;;;;;;;7.95;4.80;;;44.40;99.90;;;;;;5093962;28;20213;-71
2022/06/16 10:19:23;;;;;;;6.38;4.07;;;44.40;99.90;;;;;;5093662;28;20617;-72
2022/06/16 10:21:50;;;;;;;8.82;5.30;;;43.20;99.90;;;;;;5094008;28;20633;-71
2022/06/16 10:24:20;;;;;;;7.88;5.60;;;43.70;99.90;;;;;;5093494;28;20205;-69
2022/06/16 10:26:47;;;;;;;7.50;4.95;;;42.10;99.90;;;;;;5093550;28;20209;-70
2022/06/16 10:29:23;;;;;;;5.72;5.15;;;43.00;99.90;;;;;;5079971;28;20201;-70
2022/06/16 10:31:52;;;;;;;8.30;5.13;;;43.00;99.90;;;;;;5093825;28;20257;-69
2022/06/16 10:34:28;;;;;;;8.27;4.68;;;41.40;99.90;;;;;;5093427;28;20731;-71
2022/06/16 10:37:02;;;;;;;8.75;4.97;;;41.00;99.90;;;;;;5094023;28;20212;-71
2022/06/16 10:39:38;;;;;;;8.85;4.80;;;38.10;99.90;;;;;;5093977;28;20267;-71
2022/06/16 10:42:14;;;;;;;9.07;5.07;;;37.00;99.90;;;;;;5092254;28;20220;-71
2022/06/16 10:44:46;;;;;;;7.90;5.07;;;36.20;99.90;;;;;;5092394;28;20212;-69
2022/06/16 10:47:21;;;;;;;11.57;6.20;;;35.40;99.90;;;;;;5092067;28;20212;-69
2022/06/16 10:49:51;;;;;;;8.98;5.00;;;35.60;99.90;;;;;;5092259;28;20200;-71
2022/06/16 10:52:28;;;;;;;7.82;4.82;;;34.90;99.90;;;;;;5091447;28;20205;-71
2022/06/16 10:55:01;;;;;;;7.30;5.30;;;35.10;99.90;;;;;;5092225;28;20200;-71
2022/06/16 10:57:31;;;;;;;6.03;4.95;;;35.00;99.90;;;;;;5092391;28;20664;-71
2022/06/16 11:00:07;;;;;;;7.25;5.18;;;34.90;99.90;;;;;;5076596;28;20282;-72
2022/06/16 11:02:36;;;;;;;7.72;5.30;;;34.90;99.90;;;;;;5066185;28;20742;-73
2022/06/16 11:05:10;;;;;;;9.88;5.30;;;35.20;99.90;;;;;;5069971;28;20206;-69
2022/06/16 11:07:39;;;;;;;6.88;4.85;;;34.90;99.90;;;;;;5065270;28;20588;-71
2022/06/16 11:10:09;;;;;;;10.20;5.35;;;34.90;99.90;;;;;;5071354;28;20572;-72
2022/06/16 11:12:39;;;;;;;8.98;5.28;;;35.50;99.90;;;;;;5071471;28;20258;-74
2022/06/16 11:15:17;;;;;;;7.90;5.05;;;35.20;99.90;;;;;;5071467;28;20208;-72
2022/06/16 11:17:50;;;;;;;8.05;5.65;;;34.40;99.90;;;;;;5071397;28;20243;-69
2022/06/16 11:20:30;;;;;;;10.27;5.20;;;34.60;99.90;;;;;;5071348;28;20221;-73
2022/06/16 11:22:58;;;;;;;6.97;4.88;;;34.50;99.90;;;;;;5066289;28;20201;-73
2022/06/16 11:25:31;;;;;;;11.20;5.25;;;34.80;99.90;;;;;;5071272;28;20255;-73
2022/06/16 11:28:02;;;;;;;7.90;4.80;;;34.90;99.90;;;;;;5071626;28;20292;-70
2022/06/16 11:30:37;;;;;;;10.25;6.32;;;35.10;99.90;;;;;;5088451;28;20208;-72
2022/06/16 11:33:06;;;;;;;9.45;6.50;;;35.50;99.90;;;;;;5091369;28;20617;-72
2022/06/16 11:35:41;;;;;;;6.72;5.72;;;35.30;99.90;;;;;;5091266;28;20204;-75
2022/06/16 11:38:17;;;;;;;7.82;5.57;;;35.30;99.90;;;;;;5078514;28;20613;-71
2022/06/16 11:40:50;;;;;;;7.55;5.35;;;35.30;99.90;;;;;;5027507;28;1137031;-74
2022/06/16 11:43:35;;;;;;;10.88;5.85;;;35.90;99.90;;;;;;5072405;28;20213;-68
2022/06/16 11:46:10;;;;;;;15.50;5.53;;;36.30;99.90;;;;;;5067493;28;20244;-69
2022/06/16 11:48:48;;;;;;;11.90;6.75;;;36.20;99.90;;;;;;5072797;28;20201;-72
2022/06/16 11:51:28;;;;;;;8.27;6.43;;;34.70;99.90;;;;;;5072179;28;20258;-72
2022/06/16 11:54:08;;;;;;;7.03;5.75;;;36.20;99.90;;;;;;5074788;28;20209;-71
2022/06/16 11:56:43;;;;;;;7.55;6.32;;;35.90;99.90;;;;;;5063145;28;20209;-71
2022/06/16 11:59:37;;;;;;;9.45;5.78;;;36.30;99.90;;;;;;5074451;28;20224;-71
2022/06/16 12:02:23;;;;;;;13.82;6.93;;;38.70;99.90;;;;;;5068590;28;20292;-71
2022/06/16 12:05:02;;;;;;;10.27;5.95;;;34.90;99.90;;;;;;5071102;28;20205;-71
2022/06/16 12:07:52;;;;;;;9.93;5.40;;;36.30;99.90;;;;;;5071822;28;20677;-71
2022/06/16 12:10:29;;;;;;;11.18;6.28;;;36.50;99.90;;;;;;5071288;28;20267;-74
2022/06/16 12:13:02;;;;;;;8.05;5.57;;;36.60;99.90;;;;;;5071457;28;20201;-73
2022/06/16 12:15:38;;;;;;;12.90;5.70;;;36.50;99.90;;;;;;5071872;28;20624;-72
2022/06/16 12:18:19;;;;;;;12.00;5.57;;;36.30;99.90;;;;;;5070922;28;20668;-72
2022/06/16 12:21:01;;;;;;;8.90;5.70;;;36.60;99.90;;;;;;5071278;28;20325;-73
2022/06/16 12:23:36;;;;;;;7.47;6.28;;;36.90;99.90;;;;;;5070732;28;20205;-73
2022/06/16 12:26:06;;;;;;;7.95;5.70;;;36.50;99.90;;;;;;5071172;28;20205;-72
2022/06/16 12:28:40;;;;;;;7.63;5.22;;;36.40;99.90;;;;;;5071758;28;20205;-72
2022/06/16 12:31:11;;;;;;;7.03;4.60;;;36.60;99.90;;;;;;5091275;28;20580;-73
2022/06/16 12:33:46;;;;;;;7.70;4.65;;;36.60;99.90;;;;;;5091297;28;20612;-72
2022/06/16 12:36:17;;;;;;;7.38;5.05;;;34.70;99.90;;;;;;5091352;28;20204;-71
2022/06/16 12:38:49;;;;;;;9.05;4.60;;;36.80;99.90;;;;;;5091526;28;20209;-73
2022/06/16 12:41:20;;;;;;;9.13;5.50;;;36.70;99.90;;;;;;5070480;28;20275;-73
2022/06/16 12:43:53;;;;;;;10.43;6.40;;;36.20;99.90;;;;;;5069644;28;20209;-72
2022/06/16 12:46:26;;;;;;;7.63;6.20;;;35.20;99.90;;;;;;5070598;28;20217;-73
2022/06/16 12:48:58;;;;;;;8.15;5.55;;;36.10;99.90;;;;;;5070521;28;20750;-73
2022/06/16 12:51:35;;;;;;;8.75;5.65;;;36.00;99.90;;;;;;5070670;28;20210;-74
2022/06/16 12:54:07;;;;;;;7.15;5.10;;;35.70;99.90;;;;;;5070593;28;20201;-71
2022/06/16 12:56:40;;;;;;;6.18;4.50;;;35.70;99.90;;;;;;5070661;28;20614;-72
2022/06/16 12:59:13;;;;;;;9.48;4.72;;;35.70;99.90;;;;;;5069999;28;20618;-73
2022/06/16 13:01:42;;;;;;;11.23;6.07;;;35.60;99.90;;;;;;5070796;28;20201;-73
2022/06/16 13:04:14;;;;;;;8.25;5.50;;;35.80;99.90;;;;;;5070015;28;20201;-73
2022/06/16 13:06:44;;;;;;;10.75;5.53;;;36.00;99.90;;;;;;5070889;28;20209;-74
2022/06/16 13:09:14;;;;;;;11.55;6.90;;;36.00;99.90;;;;;;5070160;28;20202;-74
2022/06/16 13:11:46;;;;;;;6.45;4.82;;;36.30;99.90;;;;;;5070847;28;20251;-73
2022/06/16 13:14:22;;;;;;;10.85;5.07;;;36.10;99.90;;;;;;5070166;28;20206;-73
2022/06/16 13:16:50;;;;;;;16.20;5.63;;;36.10;99.90;;;;;;5070226;28;20247;-74
2022/06/16 13:19:21;;;;;;;9.10;5.53;;;36.40;99.90;;;;;;5069935;28;20670;-75
2022/06/16 13:21:53;;;;;;;8.65;5.15;;;36.50;99.90;;;;;;5070374;28;20243;-73